Time;durP1;ratioP1;P1;durP2;ratioP2;P2;SDS_P1;SDS_P2;PMS_P1;PMS_P2;Temp;Humidity;BMP_temperature;BMP_pressure;BME280_temperature;BME280_humidity;BME280_pressure;Samples;Min_cycle;Max_cycle;Signal;HPM_P1;HPM_P2
2023/08/09 00:00:09;;;;;;;4.00;1.90;;;;;;;17.03;60.50;95528.41;5050630;28;20710;-79
2023/08/09 00:02:35;;;;;;;3.85;1.98;;;;;;;16.98;60.54;95515.88;5051210;28;20261;-78
2023/08/09 00:05:00;;;;;;;4.43;1.83;;;;;;;16.71;61.07;95517.44;5033221;28;20682;-78
2023/08/09 00:07:26;;;;;;;2.75;1.60;;;;;;;16.98;60.45;95521.13;5027867;28;20704;-78
2023/08/09 00:09:51;;;;;;;1.70;1.58;;;;;;;16.88;60.82;95512.75;5040593;28;20181;-81
2023/08/09 00:12:16;;;;;;;5.55;1.80;;;;;;;16.98;60.52;95518.50;5026334;28;20186;-78
2023/08/09 00:14:42;;;;;;;2.80;1.92;;;;;;;16.94;60.42;95512.00;5029294;28;20562;-78
2023/08/09 00:17:07;;;;;;;2.13;1.70;;;;;;;17.06;60.08;95510.50;5026158;28;20210;-79
2023/08/09 00:19:32;;;;;;;2.28;1.42;;;;;;;17.05;60.40;95510.66;5032213;28;20190;-78
2023/08/09 00:21:58;;;;;;;2.80;1.80;;;;;;;16.96;60.51;95494.25;5016819;28;20222;-79
2023/08/09 00:24:23;;;;;;;4.18;1.98;;;;;;;16.92;60.35;95493.81;5036066;28;20293;-78
2023/08/09 00:26:48;;;;;;;1.88;1.65;;;;;;;16.99;60.54;95488.63;5020880;28;20245;-79
2023/08/09 00:29:13;;;;;;;3.65;1.80;;;;;;;16.92;60.90;95488.56;5024010;28;20216;-79
2023/08/09 00:31:39;;;;;;;2.58;1.67;;;;;;;16.89;61.21;95482.91;5042905;28;20182;-78
2023/08/09 00:34:06;;;;;;;2.80;2.00;;;;;;;16.96;60.85;95473.25;5046843;28;20623;-78
2023/08/09 00:36:31;;;;;;;4.78;1.83;;;;;;;16.83;61.07;95473.97;5033982;28;20741;-78
2023/08/09 00:38:57;;;;;;;3.10;1.92;;;;;;;16.89;60.72;95478.47;5034648;28;20194;-78
2023/08/09 00:41:22;;;;;;;3.15;1.73;;;;;;;16.91;60.82;95484.34;5034128;28;20210;-79
2023/08/09 00:43:47;;;;;;;2.40;1.40;;;;;;;16.86;61.05;95485.88;5046508;28;20185;-78
2023/08/09 00:46:13;;;;;;;2.40;1.30;;;;;;;16.98;60.92;95479.97;5043514;28;20264;-79
2023/08/09 00:48:38;;;;;;;4.30;1.92;;;;;;;16.83;61.34;95497.56;5041523;28;20186;-78
2023/08/09 00:51:04;;;;;;;2.25;2.00;;;;;;;16.84;61.47;95487.88;5032200;28;20775;-79
2023/08/09 00:53:31;;;;;;;3.42;1.77;;;;;;;16.87;61.27;95488.34;5036200;28;20183;-79
2023/08/09 00:55:56;;;;;;;3.00;1.60;;;;;;;16.86;61.07;95485.88;5033103;28;20699;-78
2023/08/09 00:58:22;;;;;;;3.67;1.73;;;;;;;17.02;60.77;95487.44;5014927;28;20256;-79
2023/08/09 01:00:48;;;;;;;3.90;1.67;;;;;;;16.95;61.01;95479.50;5033251;28;20220;-79
2023/08/09 01:03:14;;;;;;;1.92;1.58;;;;;;;17.06;60.18;95473.78;5045793;28;20182;-79
2023/08/09 01:05:46;;;;;;;2.53;1.75;;;;;;;16.88;61.04;95473.41;5025512;28;20299;-79
2023/08/09 01:08:23;;;;;;;4.95;1.63;;;;;;;16.92;60.60;95472.84;5041450;28;20175;-78
2023/08/09 01:11:10;;;;;;;1.50;1.40;;;;;;;17.01;60.55;95464.84;5026109;28;20681;-78
2023/08/09 01:13:37;;;;;;;4.20;1.70;;;;;;;16.96;60.46;95458.34;5045580;28;20585;-79
2023/08/09 01:16:04;;;;;;;3.05;1.90;;;;;;;16.81;60.92;95459.44;5032740;28;20210;-79
2023/08/09 01:18:29;;;;;;;3.45;1.85;;;;;;;16.95;60.26;95455.91;5033493;28;20327;-79
2023/08/09 01:20:56;;;;;;;2.13;1.52;;;;;;;16.98;60.09;95456.34;5032925;28;20300;-78
2023/08/09 01:23:21;;;;;;;4.57;1.83;;;;;;;16.92;60.41;95451.03;5044373;28;20193;-80
2023/08/09 01:25:48;;;;;;;3.28;1.50;;;;;;;16.83;60.71;95457.41;5040905;28;20209;-78
2023/08/09 01:28:16;;;;;;;5.35;1.52;;;;;;;16.87;60.23;95450.78;5025902;28;20281;-79
2023/08/09 01:30:41;;;;;;;2.00;1.80;;;;;;;17.05;60.10;95453.78;5032612;28;20683;-78
2023/08/09 01:33:07;;;;;;;2.10;1.45;;;;;;;17.05;60.08;95459.03;5029401;28;20177;-78
2023/08/09 01:35:35;;;;;;;2.42;1.40;;;;;;;17.06;60.32;95463.28;5031038;28;20189;-79
2023/08/09 01:38:11;;;;;;;3.42;1.40;;;;;;;17.06;60.10;95465.91;5049383;28;20186;-79
2023/08/09 01:40:38;;;;;;;4.50;1.80;;;;;;;16.98;60.39;95469.47;5032210;28;20562;-79
2023/08/09 01:43:03;;;;;;;3.33;1.58;;;;;;;16.96;60.56;95470.63;5044380;28;20182;-79
2023/08/09 01:45:29;;;;;;;2.15;1.70;;;;;;;16.76;61.04;95473.09;5023776;28;20191;-80
2023/08/09 01:47:54;;;;;;;1.58;1.48;;;;;;;17.01;60.15;95477.97;5022275;28;20232;-80
2023/08/09 01:50:24;;;;;;;2.85;1.55;;;;;;;17.09;59.77;95486.50;5019413;28;20675;-79
2023/08/09 01:52:55;;;;;;;5.05;1.80;;;;;;;17.03;59.97;95484.63;5045481;28;20191;-78
2023/08/09 01:55:20;;;;;;;2.05;1.48;;;;;;;17.09;59.81;95488.31;5031422;28;20276;-79
2023/08/09 01:57:47;;;;;;;4.80;1.58;;;;;;;17.09;59.49;95497.00;5048399;28;20206;-79
2023/08/09 02:00:16;;;;;;;1.95;1.42;;;;;;;17.07;59.51;95493.75;5029011;28;20670;-80
2023/08/09 02:02:42;;;;;;;1.77;1.40;;;;;;;17.10;59.66;95501.25;5040052;28;20197;-79
2023/08/09 02:05:08;;;;;;;3.00;1.40;;;;;;;17.19;59.19;95494.06;5021028;28;20201;-81
2023/08/09 02:07:33;;;;;;;2.40;1.45;;;;;;;17.16;59.27;95494.44;5041678;28;20581;-79
2023/08/09 02:09:59;;;;;;;1.92;1.48;;;;;;;17.28;58.74;95498.97;5031498;28;20264;-80
2023/08/09 02:12:24;;;;;;;2.42;1.70;;;;;;;17.26;58.72;95505.41;5046072;28;20189;-79
2023/08/09 02:14:50;;;;;;;1.90;1.50;;;;;;;17.17;58.82;95496.88;5047903;28;20188;-81
2023/08/09 02:17:16;;;;;;;2.15;1.42;;;;;;;17.17;58.89;95498.69;5031780;28;20781;-79
2023/08/09 02:19:41;;;;;;;2.78;1.40;;;;;;;17.19;58.94;95492.22;5045058;28;20300;-80
2023/08/09 02:22:07;;;;;;;2.58;1.40;;;;;;;17.25;58.42;95488.84;5042784;28;20681;-79
2023/08/09 02:24:32;;;;;;;2.15;1.55;;;;;;;17.24;58.97;95497.75;5040661;28;20186;-79
2023/08/09 02:26:57;;;;;;;1.98;1.67;;;;;;;17.31;58.64;95491.72;5040244;28;20291;-80
2023/08/09 02:29:23;;;;;;;3.63;1.65;;;;;;;17.28;58.62;95498.16;5031574;28;20196;-81
2023/08/09 02:31:48;;;;;;;1.58;1.33;;;;;;;17.22;58.62;95493.66;5029167;28;20186;-79
2023/08/09 02:34:13;;;;;;;2.47;1.67;;;;;;;17.19;58.46;95489.59;5032533;28;20189;-79
2023/08/09 02:36:39;;;;;;;2.25;1.45;;;;;;;17.22;58.84;95489.22;5031295;28;20208;-80
2023/08/09 02:39:05;;;;;;;4.22;1.92;;;;;;;17.25;58.12;95486.25;5044639;28;20189;-79
2023/08/09 02:41:30;;;;;;;4.90;1.90;;;;;;;17.21;58.07;95492.84;5026178;28;20741;-80
2023/08/09 02:43:56;;;;;;;3.47;1.50;;;;;;;17.37;57.52;95485.72;5030853;28;20240;-80
2023/08/09 02:46:21;;;;;;;3.28;1.55;;;;;;;17.28;57.93;95493.72;5029908;28;20267;-80
2023/08/09 02:48:46;;;;;;;4.13;1.67;;;;;;;17.22;58.53;95489.22;5018124;28;20236;-80
2023/08/09 02:51:12;;;;;;;2.50;1.60;;;;;;;17.21;58.34;95482.34;5032805;28;20213;-80
2023/08/09 02:53:57;;;;;;;2.17;1.60;;;;;;;17.31;58.04;95491.72;5030117;28;20190;-80
2023/08/09 02:56:22;;;;;;;2.60;1.40;;;;;;;17.27;58.26;95491.28;5044855;28;20218;-79
2023/08/09 02:58:48;;;;;;;2.35;1.58;;;;;;;17.11;58.77;95486.31;5044070;28;20193;-81
2023/08/09 03:01:13;;;;;;;2.85;1.58;;;;;;;17.11;58.39;95497.63;5041545;28;20218;-80
2023/08/09 03:03:38;;;;;;;4.57;1.65;;;;;;;17.16;58.16;95497.06;5039400;28;20188;-80
2023/08/09 03:06:05;;;;;;;4.13;1.75;;;;;;;17.25;58.13;95506.41;5037089;28;20210;-80
2023/08/09 03:08:31;;;;;;;4.85;1.90;;;;;;;17.25;58.50;95506.41;5034465;28;20282;-80
2023/08/09 03:10:56;;;;;;;2.45;1.52;;;;;;;17.04;59.17;95502.00;5015457;28;20289;-80
2023/08/09 03:13:22;;;;;;;2.33;1.60;;;;;;;16.94;58.88;95496.25;5029586;28;20565;-80
2023/08/09 03:15:47;;;;;;;1.63;1.42;;;;;;;17.07;58.77;95498.19;5030383;28;20304;-79
2023/08/09 03:18:13;;;;;;;1.88;1.25;;;;;;;17.08;58.83;95492.75;5034087;28;20590;-80
2023/08/09 03:20:39;;;;;;;4.03;1.75;;;;;;;17.16;58.75;95492.63;5030303;28;20199;-80
2023/08/09 03:23:04;;;;;;;4.63;1.55;;;;;;;17.19;58.59;95489.59;5031426;28;20247;-80
2023/08/09 03:25:31;;;;;;;2.65;1.50;;;;;;;16.93;58.93;95494.63;5040489;28;20616;-80
2023/08/09 03:27:56;;;;;;;4.28;1.75;;;;;;;17.05;58.82;95493.16;5029164;28;20237;-80
2023/08/09 03:30:22;;;;;;;2.08;1.67;;;;;;;16.99;59.03;95489.44;5034952;28;20190;-80
2023/08/09 03:32:47;;;;;;;2.25;1.80;;;;;;;17.03;58.94;95496.94;5016421;28;20194;-79
2023/08/09 03:35:12;;;;;;;3.85;1.80;;;;;;;17.15;58.52;95493.63;5034969;28;20713;-79
2023/08/09 03:37:38;;;;;;;2.38;1.55;;;;;;;17.06;58.93;95502.63;5033310;28;20214;-79
2023/08/09 03:40:06;;;;;;;1.67;1.38;;;;;;;16.91;59.22;95501.88;5033646;28;20214;-79
2023/08/09 03:42:32;;;;;;;2.70;1.50;;;;;;;17.06;59.17;95510.50;5042070;28;20716;-80
2023/08/09 03:44:57;;;;;;;3.85;1.70;;;;;;;17.12;58.53;95508.91;5044502;28;20190;-80
2023/08/09 03:47:22;;;;;;;1.85;1.67;;;;;;;17.17;58.60;95507.38;5030586;28;20206;-79
2023/08/09 03:49:48;;;;;;;2.50;1.50;;;;;;;17.18;58.65;95508.97;5035038;28;20237;-79
2023/08/09 03:52:13;;;;;;;2.20;1.63;;;;;;;17.14;58.52;95515.63;5045803;28;20320;-80
2023/08/09 03:54:38;;;;;;;2.08;1.48;;;;;;;17.07;58.74;95514.75;5017979;28;20202;-79
2023/08/09 03:57:06;;;;;;;2.53;1.55;;;;;;;17.13;58.75;95515.78;5032413;28;20202;-78
2023/08/09 03:59:32;;;;;;;2.28;1.63;;;;;;;17.12;58.55;95520.22;5034066;28;20193;-79
2023/08/09 04:01:57;;;;;;;1.63;1.52;;;;;;;17.12;58.87;95519.41;5042958;28;20571;-79
2023/08/09 04:04:23;;;;;;;1.63;1.40;;;;;;;17.17;58.61;95514.44;5044336;28;20186;-80
2023/08/09 04:06:49;;;;;;;4.10;1.42;;;;;;;17.13;58.70;95516.59;5030154;28;20560;-79
2023/08/09 04:09:14;;;;;;;2.08;1.50;;;;;;;17.02;59.01;95522.34;5049365;28;20177;-80
2023/08/09 04:11:39;;;;;;;3.50;1.63;;;;;;;16.88;59.36;95508.31;5035237;28;20189;-80
2023/08/09 04:14:05;;;;;;;3.20;2.10;;;;;;;17.18;58.36;95519.47;5046094;28;20186;-79
2023/08/09 04:16:30;;;;;;;2.10;1.60;;;;;;;17.18;58.90;95508.97;5045986;28;20221;-80
2023/08/09 04:18:56;;;;;;;1.52;1.42;;;;;;;17.28;58.28;95513.91;5044189;28;20304;-79
2023/08/09 04:21:21;;;;;;;1.50;1.40;;;;;;;17.31;58.31;95516.13;5033545;28;20218;-79
2023/08/09 04:23:47;;;;;;;3.75;2.20;;;;;;;17.28;58.44;95522.59;5039449;28;20232;-77
2023/08/09 04:26:12;;;;;;;2.67;1.48;;;;;;;16.91;59.21;95515.81;5035032;28;20574;-79
2023/08/09 04:28:37;;;;;;;2.33;1.40;;;;;;;17.23;58.55;95519.72;5033485;28;20186;-79
2023/08/09 04:31:05;;;;;;;3.10;1.50;;;;;;;17.40;58.28;95516.81;5015452;28;20200;-81
2023/08/09 04:33:31;;;;;;;2.83;1.48;;;;;;;17.34;57.82;95522.84;5017711;28;20190;-79
2023/08/09 04:35:56;;;;;;;2.65;1.40;;;;;;;17.24;58.37;95521.34;5035638;28;20293;-79
2023/08/09 04:38:21;;;;;;;4.30;1.70;;;;;;;17.19;58.39;95523.72;5038184;28;20276;-79
2023/08/09 04:40:47;;;;;;;1.63;1.52;;;;;;;17.12;58.64;95522.84;5024975;28;20216;-79
2023/08/09 04:43:13;;;;;;;3.15;1.63;;;;;;;17.23;58.23;95522.34;5033165;28;20186;-80
2023/08/09 04:45:39;;;;;;;1.92;1.50;;;;;;;17.22;58.47;95528.59;5032948;28;20224;-79
2023/08/09 04:48:05;;;;;;;2.40;1.95;;;;;;;17.38;58.25;95526.69;5048409;28;20185;-79
2023/08/09 04:50:30;;;;;;;3.80;1.40;;;;;;;17.26;59.73;95521.16;5049618;28;20186;-78
2023/08/09 04:52:56;;;;;;;2.30;1.63;;;;;;;17.01;60.91;95517.31;5030938;28;20281;-79
2023/08/09 04:55:21;;;;;;;3.58;1.70;;;;;;;17.41;60.67;95516.66;5031807;28;20244;-79
2023/08/09 04:57:46;;;;;;;2.40;1.60;;;;;;;17.24;61.13;95507.44;5042908;28;20194;-80
2023/08/09 05:00:13;;;;;;;5.05;1.52;;;;;;;17.43;60.42;95505.94;5023115;28;20292;-79
2023/08/09 05:02:39;;;;;;;5.15;1.70;;;;;;;17.18;61.35;95514.22;5031780;28;20233;-79
2023/08/09 05:05:08;;;;;;;3.45;1.70;;;;;;;17.27;60.94;95502.59;5034197;28;20224;-79
2023/08/09 05:07:34;;;;;;;3.38;1.67;;;;;;;17.21;60.78;95516.47;5032169;28;20210;-79
2023/08/09 05:10:01;;;;;;;3.17;1.80;;;;;;;17.27;60.54;95507.03;5015124;28;20392;-79
2023/08/09 05:12:26;;;;;;;2.15;1.50;;;;;;;17.22;60.38;95510.22;5033757;28;20186;-79
2023/08/09 05:14:52;;;;;;;1.55;1.35;;;;;;;17.41;59.75;95515.84;5019096;28;20194;-78
2023/08/09 05:17:17;;;;;;;1.92;1.80;;;;;;;17.24;60.25;95510.84;5031464;28;20833;-79
2023/08/09 05:19:42;;;;;;;2.00;1.80;;;;;;;17.31;59.88;95510.88;5032300;28;20182;-80
2023/08/09 05:22:08;;;;;;;2.35;1.70;;;;;;;17.57;59.32;95515.53;5027052;28;20223;-79
2023/08/09 05:24:33;;;;;;;4.32;1.55;;;;;;;17.58;58.99;95508.47;5045689;28;20192;-79
2023/08/09 05:26:58;;;;;;;3.58;1.52;;;;;;;17.75;59.02;95512.44;5031629;28;20297;-81
2023/08/09 05:29:23;;;;;;;2.10;1.83;;;;;;;17.63;58.54;95506.09;5032319;28;20240;-79
2023/08/09 05:31:49;;;;;;;2.53;1.60;;;;;;;17.64;58.89;95505.88;5027665;28;20179;-78
2023/08/09 05:34:14;;;;;;;3.33;1.55;;;;;;;17.83;58.33;95502.59;5041012;28;20200;-80
2023/08/09 05:36:39;;;;;;;2.92;1.42;;;;;;;17.43;59.08;95503.31;5048365;28;20255;-79
2023/08/09 05:39:07;;;;;;;2.85;1.63;;;;;;;17.41;58.97;95507.97;5045497;28;20197;-79
2023/08/09 05:41:32;;;;;;;3.22;1.45;;;;;;;17.70;58.53;95513.03;5042959;28;20217;-79
2023/08/09 05:43:58;;;;;;;3.50;1.92;;;;;;;17.80;58.79;95518.75;5036342;28;20186;-79
2023/08/09 05:46:23;;;;;;;2.50;1.50;;;;;;;17.87;58.72;95510.09;5013955;28;20266;-79
2023/08/09 05:48:48;;;;;;;2.60;1.77;;;;;;;17.78;58.71;95515.50;5030183;28;20807;-79
2023/08/09 05:51:14;;;;;;;2.95;1.30;;;;;;;17.86;58.36;95514.56;5032894;28;20253;-79
2023/08/09 05:53:39;;;;;;;3.15;1.67;;;;;;;17.92;58.18;95526.91;5019614;28;20893;-80
2023/08/09 05:56:06;;;;;;;2.50;1.65;;;;;;;17.87;58.81;95512.75;5039145;28;20628;-80
2023/08/09 05:58:31;;;;;;;3.97;1.55;;;;;;;17.77;58.92;95519.16;5040550;28;20638;-79
2023/08/09 06:00:57;;;;;;;3.22;1.52;;;;;;;17.88;58.42;95519.59;5042862;28;20271;-79
2023/08/09 06:03:22;;;;;;;1.60;1.50;;;;;;;18.21;57.51;95515.34;5027492;28;20280;-79
2023/08/09 06:05:48;;;;;;;1.55;1.45;;;;;;;18.09;57.83;95517.69;5029939;28;20691;-79
2023/08/09 06:08:13;;;;;;;3.25;1.33;;;;;;;18.20;57.52;95531.28;5030929;28;20654;-78
2023/08/09 06:10:38;;;;;;;3.78;1.77;;;;;;;18.23;57.36;95523.84;5016947;28;20209;-79
2023/08/09 06:13:03;;;;;;;4.43;1.65;;;;;;;18.25;57.30;95532.31;5020857;28;20178;-80
2023/08/09 06:15:29;;;;;;;4.38;1.85;;;;;;;18.21;57.23;95539.00;5039895;28;20217;-81
2023/08/09 06:17:54;;;;;;;3.92;2.30;;;;;;;18.30;57.22;95534.38;5031055;28;20196;-80
2023/08/09 06:20:21;;;;;;;1.70;1.30;;;;;;;18.26;57.25;95547.09;5022616;28;20217;-81
2023/08/09 06:22:47;;;;;;;2.95;1.98;;;;;;;18.10;57.84;95550.03;5035082;28;20268;-80
2023/08/09 06:25:12;;;;;;;3.08;2.13;;;;;;;18.20;57.85;95540.00;5032445;28;20228;-80
2023/08/09 06:27:37;;;;;;;2.30;1.60;;;;;;;18.43;56.98;95546.75;5032586;28;20270;-80
2023/08/09 06:30:04;;;;;;;3.78;1.70;;;;;;;18.24;57.29;95551.75;5035401;28;20328;-80
2023/08/09 06:32:29;;;;;;;2.97;1.58;;;;;;;18.39;57.30;95549.78;5032722;28;20201;-81
2023/08/09 06:34:54;;;;;;;4.25;1.65;;;;;;;18.43;56.79;95544.94;5039447;28;20190;-81
2023/08/09 06:37:20;;;;;;;3.38;2.17;;;;;;;18.45;57.07;95545.56;5026272;28;20296;-80
2023/08/09 06:39:45;;;;;;;3.72;1.73;;;;;;;18.55;57.27;95553.91;5029029;28;20194;-80
2023/08/09 06:42:12;;;;;;;3.22;1.60;;;;;;;18.60;57.45;95555.94;5048408;28;20196;-80
2023/08/09 06:44:38;;;;;;;3.58;1.98;;;;;;;18.34;58.48;95556.63;5034810;28;20189;-81
2023/08/09 06:47:03;;;;;;;5.63;1.65;;;;;;;18.29;58.53;95569.56;5051412;28;20251;-81
2023/08/09 06:49:28;;;;;;;5.20;1.67;;;;;;;18.16;59.06;95572.91;5033888;28;20194;-80
2023/08/09 06:51:55;;;;;;;3.95;2.00;;;;;;;18.26;58.78;95570.75;5033336;28;20190;-80
2023/08/09 06:54:20;;;;;;;5.72;1.90;;;;;;;18.35;58.79;95577.47;5043224;28;20213;-80
2023/08/09 06:56:45;;;;;;;2.00;1.30;;;;;;;18.28;58.98;95579.25;5037420;28;20266;-80
2023/08/09 06:59:11;;;;;;;2.97;1.90;;;;;;;18.09;60.06;95579.94;5035533;28;20193;-80
2023/08/09 07:01:36;;;;;;;2.33;1.58;;;;;;;18.31;59.47;95573.63;5034195;28;20206;-80
2023/08/09 07:04:01;;;;;;;1.73;1.58;;;;;;;18.25;59.62;95560.44;5036229;28;20183;-81
2023/08/09 07:06:27;;;;;;;2.30;1.42;;;;;;;18.56;58.68;95575.75;5019552;28;20214;-81
2023/08/09 07:08:55;;;;;;;1.90;1.52;;;;;;;18.77;58.10;95582.72;5040219;28;20190;-81
2023/08/09 07:11:21;;;;;;;3.25;2.05;;;;;;;18.76;57.53;95581.94;5041505;28;20190;-81
2023/08/09 07:13:47;;;;;;;3.70;1.88;;;;;;;19.17;56.67;95579.22;5044293;28;20214;-81
2023/08/09 07:16:12;;;;;;;2.90;1.77;;;;;;;19.21;56.19;95585.69;5029839;28;20205;-80
2023/08/09 07:18:37;;;;;;;2.30;2.05;;;;;;;19.24;56.15;95590.53;5050000;28;20190;-79
2023/08/09 07:21:03;;;;;;;2.50;1.77;;;;;;;19.57;55.78;95587.16;5052422;28;20221;-82
2023/08/09 07:23:28;;;;;;;3.03;2.00;;;;;;;19.65;55.89;95592.22;5035709;28;20250;-83
2023/08/09 07:25:54;;;;;;;2.88;1.52;;;;;;;20.05;54.85;95587.75;5032126;28;20211;-81
2023/08/09 07:28:19;;;;;;;2.67;1.80;;;;;;;20.13;54.19;95588.53;5050636;28;20269;-82
2023/08/09 07:30:44;;;;;;;3.45;1.60;;;;;;;19.66;55.95;95603.56;5024033;28;20173;-81
2023/08/09 07:33:10;;;;;;;2.20;1.80;;;;;;;19.80;55.37;95603.38;5044063;28;20194;-80
2023/08/09 07:35:35;;;;;;;1.83;1.20;;;;;;;19.43;55.81;95596.84;5034954;28;20214;-81
2023/08/09 07:38:01;;;;;;;3.60;2.30;;;;;;;19.57;56.28;95607.44;5039638;28;20182;-81
2023/08/09 07:40:26;;;;;;;5.65;1.80;;;;;;;19.23;56.87;95609.16;5046971;28;20208;-81
2023/08/09 07:42:53;;;;;;;2.67;1.48;;;;;;;19.17;57.08;95609.94;5053851;28;20612;-80
2023/08/09 07:45:18;;;;;;;2.38;2.17;;;;;;;19.11;57.52;95606.31;5044514;28;20185;-81
2023/08/09 07:47:44;;;;;;;4.00;2.05;;;;;;;19.10;57.35;95612.59;5021461;28;20182;-84
2023/08/09 07:50:09;;;;;;;2.95;1.60;;;;;;;19.18;57.40;95615.03;5022931;28;20192;-83
2023/08/09 07:52:35;;;;;;;3.17;1.50;;;;;;;19.01;57.55;95605.06;5025275;28;20213;-83
2023/08/09 07:55:00;;;;;;;3.25;1.95;;;;;;;19.38;57.08;95606.38;5027619;28;20192;-83
2023/08/09 07:57:25;;;;;;;4.50;2.03;;;;;;;19.62;55.97;95615.53;5046972;28;20211;-84
2023/08/09 07:59:51;;;;;;;2.08;1.88;;;;;;;19.56;56.17;95616.31;5035380;28;20613;-83
2023/08/09 08:02:16;;;;;;;4.00;2.20;;;;;;;19.25;57.23;95630.84;5051336;28;20587;-84
2023/08/09 08:04:42;;;;;;;2.28;1.92;;;;;;;19.45;56.99;95626.44;5047698;28;20202;-83
2023/08/09 08:07:09;;;;;;;5.07;1.92;;;;;;;19.60;56.45;95625.44;5030948;28;20237;-83
2023/08/09 08:09:35;;;;;;;3.85;2.10;;;;;;;19.44;56.89;95627.44;5045047;28;20186;-84
2023/08/09 08:12:00;;;;;;;5.05;2.00;;;;;;;19.66;56.06;95632.56;5042171;28;20229;-83
2023/08/09 08:14:26;;;;;;;2.83;2.17;;;;;;;19.39;56.47;95640.38;5021507;28;20701;-84
2023/08/09 08:16:51;;;;;;;3.70;2.05;;;;;;;19.61;56.80;95635.78;5037202;28;20576;-83
2023/08/09 08:19:16;;;;;;;2.97;2.00;;;;;;;19.38;57.28;95636.13;5026062;28;20182;-82
2023/08/09 08:21:42;;;;;;;2.80;1.75;;;;;;;19.49;56.97;95651.34;5030373;28;20996;-81
2023/08/09 08:24:08;;;;;;;4.40;2.00;;;;;;;19.30;57.77;95648.69;5027644;28;20186;-81
2023/08/09 08:26:34;;;;;;;4.28;2.30;;;;;;;19.06;58.74;95648.19;5036343;28;20564;-82
2023/08/09 08:29:01;;;;;;;3.15;1.88;;;;;;;18.92;59.50;95664.97;5043565;28;20258;-82
2023/08/09 08:31:26;;;;;;;5.80;1.90;;;;;;;18.84;59.85;95667.75;5031439;28;20597;-82
2023/08/09 08:33:52;;;;;;;4.10;1.90;;;;;;;19.03;59.50;95660.94;5030803;28;20182;-80
2023/08/09 08:36:17;;;;;;;3.67;1.90;;;;;;;18.74;60.45;95665.50;5018021;28;20206;-81
2023/08/09 08:38:43;;;;;;;3.00;1.95;;;;;;;18.74;60.58;95672.56;5046392;28;20261;-81
2023/08/09 08:41:10;;;;;;;2.45;2.10;;;;;;;18.93;60.09;95663.94;5029938;28;20254;-81
2023/08/09 08:43:36;;;;;;;2.58;1.92;;;;;;;18.74;61.04;95669.94;5031586;28;20192;-82
2023/08/09 08:46:04;;;;;;;5.03;2.00;;;;;;;18.72;60.80;95678.00;5025704;28;20203;-82
2023/08/09 08:48:32;;;;;;;3.92;2.10;;;;;;;18.78;60.59;95682.50;5031417;28;20186;-82
2023/08/09 08:50:58;;;;;;;5.47;2.15;;;;;;;18.77;61.13;95683.50;5043238;28;20206;-79
2023/08/09 08:53:24;;;;;;;3.20;2.03;;;;;;;18.95;60.99;95677.72;5034287;28;20196;-79
2023/08/09 08:55:49;;;;;;;6.70;1.83;;;;;;;18.94;61.19;95671.66;5046575;28;20214;-78
2023/08/09 08:58:14;;;;;;;3.75;2.05;;;;;;;19.08;60.80;95666.41;5049230;28;20265;-78
2023/08/09 09:00:40;;;;;;;5.13;1.90;;;;;;;18.98;60.64;95685.22;5034693;28;20752;-78
2023/08/09 09:03:05;;;;;;;4.60;2.72;;;;;;;18.94;60.82;95674.28;5030438;28;20799;-79
2023/08/09 09:05:30;;;;;;;3.13;2.03;;;;;;;18.97;61.28;95678.31;5036193;28;20202;-78
2023/08/09 09:07:58;;;;;;;2.85;2.10;;;;;;;18.92;62.99;95678.13;5041054;28;20179;-79
2023/08/09 09:10:25;;;;;;;2.95;1.70;;;;;;;18.88;63.77;95684.75;5041491;28;20185;-78
2023/08/09 09:12:53;;;;;;;6.65;2.90;;;;;;;18.76;64.33;95691.59;5027530;28;20185;-79
2023/08/09 09:15:18;;;;;;;3.25;2.38;;;;;;;18.74;64.28;95680.47;5047010;28;20214;-79
2023/08/09 09:17:44;;;;;;;4.68;2.55;;;;;;;18.90;63.06;95688.00;5034742;28;20295;-79
2023/08/09 09:20:15;;;;;;;3.03;1.92;;;;;;;18.67;63.08;95686.50;5031076;28;20214;-80
2023/08/09 09:22:40;;;;;;;4.13;1.92;;;;;;;18.92;63.21;95680.75;5045889;28;20361;-78
2023/08/09 09:25:10;;;;;;;3.80;2.03;;;;;;;19.25;62.20;95683.47;5031202;28;20559;-79
2023/08/09 09:27:36;;;;;;;2.58;1.70;;;;;;;19.39;62.07;95681.72;5039655;28;20687;-79
2023/08/09 09:30:04;;;;;;;4.07;2.25;;;;;;;19.56;60.63;95682.16;5042698;28;20198;-80
2023/08/09 09:32:32;;;;;;;3.40;2.08;;;;;;;19.51;60.48;95674.84;5045832;28;20244;-79
2023/08/09 09:34:57;;;;;;;4.45;1.90;;;;;;;19.49;61.00;95680.31;5046840;28;20247;-79
2023/08/09 09:37:25;;;;;;;5.43;2.00;;;;;;;19.62;59.86;95686.66;5032261;28;20640;-78
2023/08/09 09:39:52;;;;;;;3.45;1.80;;;;;;;19.20;61.97;95684.09;5048782;28;20273;-79
2023/08/09 09:42:17;;;;;;;5.40;2.47;;;;;;;19.08;62.52;95687.47;5046573;28;20550;-80
2023/08/09 09:44:43;;;;;;;4.38;2.05;;;;;;;19.13;63.20;95692.97;5031377;28;20284;-80
2023/08/09 09:47:10;;;;;;;5.75;2.10;;;;;;;19.11;63.23;95695.81;5023760;28;20245;-79
2023/08/09 09:49:36;;;;;;;3.90;2.42;;;;;;;18.72;64.42;95699.06;5042032;28;20189;-80
2023/08/09 09:52:03;;;;;;;4.65;2.22;;;;;;;18.52;65.66;95698.91;5033063;28;20196;-80
2023/08/09 09:54:28;;;;;;;5.38;2.10;;;;;;;18.65;65.91;95701.66;5028018;28;20272;-80
2023/08/09 09:56:54;;;;;;;2.97;2.28;;;;;;;18.40;67.05;95701.28;5015390;28;20681;-79
2023/08/09 09:59:19;;;;;;;5.25;2.33;;;;;;;18.72;65.89;95706.13;5033209;28;20189;-83
2023/08/09 10:01:47;;;;;;;3.78;2.10;;;;;;;18.71;65.51;95704.50;5017751;28;20237;-84
2023/08/09 10:04:14;;;;;;;3.75;1.83;;;;;;;18.96;65.15;95705.66;5020359;28;20832;-83
2023/08/09 10:06:43;;;;;;;4.85;2.20;;;;;;;19.44;64.13;95698.56;5024533;28;20209;-83
2023/08/09 10:09:09;;;;;;;5.03;2.10;;;;;;;19.19;63.44;95695.63;5029274;28;20200;-82
2023/08/09 10:11:36;;;;;;;2.55;1.73;;;;;;;19.51;63.07;95695.91;5030015;28;20661;-81
2023/08/09 10:14:05;;;;;;;3.60;2.10;;;;;;;19.72;63.11;95697.63;5022665;28;20264;-80
2023/08/09 10:16:31;;;;;;;2.70;1.90;;;;;;;19.85;60.97;95692.34;5032906;28;20695;-80
2023/08/09 10:19:00;;;;;;;4.45;1.70;;;;;;;19.68;61.92;95701.66;5017584;28;20192;-80
2023/08/09 10:21:25;;;;;;;3.30;2.08;;;;;;;19.61;62.28;95692.91;5040915;28;20205;-81
2023/08/09 10:23:56;;;;;;;3.47;1.77;;;;;;;19.82;62.58;95705.13;5034513;28;20182;-80
2023/08/09 10:26:29;;;;;;;3.70;1.90;;;;;;;19.93;62.11;95704.53;5041099;28;20204;-79
2023/08/09 10:29:12;;;;;;;4.43;2.00;;;;;;;20.02;61.46;95700.69;5028049;28;20201;-81
2023/08/09 10:31:51;;;;;;;5.03;2.00;;;;;;;20.42;59.82;95704.13;5028544;28;20600;-80
2023/08/09 10:34:18;;;;;;;2.78;1.75;;;;;;;20.95;58.93;95709.31;5030367;28;20193;-78
2023/08/09 10:36:48;;;;;;;5.70;2.03;;;;;;;20.86;58.71;95700.81;5057791;28;20452;-81
2023/08/09 10:39:16;;;;;;;5.15;2.58;;;;;;;21.20;57.04;95704.97;5068028;28;20241;-80
2023/08/09 10:41:55;;;;;;;2.88;1.88;;;;;;;21.35;56.85;95695.97;5050742;28;20205;-82
2023/08/09 10:44:34;;;;;;;5.32;2.25;;;;;;;21.26;56.41;95695.38;5040331;28;20319;-81
2023/08/09 10:47:09;;;;;;;5.10;2.08;;;;;;;21.57;55.20;95701.75;5055446;28;20618;-81
2023/08/09 10:49:47;;;;;;;3.42;2.10;;;;;;;21.28;55.84;95709.19;5049209;28;20551;-81
2023/08/09 10:52:13;;;;;;;3.20;2.08;;;;;;;21.11;56.16;95708.81;5043692;28;20236;-81
2023/08/09 10:54:39;;;;;;;4.07;1.80;;;;;;;20.88;56.30;95703.25;5038322;28;20599;-82
2023/08/09 10:57:09;;;;;;;4.40;1.90;;;;;;;21.01;56.48;95702.38;5042483;28;20198;-80
2023/08/09 10:59:35;;;;;;;5.75;2.20;;;;;;;20.87;57.48;95701.63;5025942;28;20189;-81
2023/08/09 11:02:00;;;;;;;3.20;1.88;;;;;;;20.94;57.19;95702.41;5036856;28;20217;-81
2023/08/09 11:04:26;;;;;;;2.17;1.80;;;;;;;20.98;56.87;95714.16;5049818;28;20220;-84
2023/08/09 11:06:51;;;;;;;3.83;1.75;;;;;;;20.99;57.23;95710.50;5039769;28;20237;-85
2023/08/09 11:09:21;;;;;;;2.97;2.13;;;;;;;20.80;57.31;95706.91;5029414;28;20185;-84
2023/08/09 11:11:48;;;;;;;4.00;1.88;;;;;;;21.04;56.33;95696.69;5041183;28;20198;-83
2023/08/09 11:14:15;;;;;;;3.92;1.85;;;;;;;21.32;55.22;95696.41;5041559;28;20281;-85
2023/08/09 11:16:41;;;;;;;3.95;1.90;;;;;;;21.59;53.93;95702.34;5041471;28;20213;-83
2023/08/09 11:19:08;;;;;;;4.13;2.20;;;;;;;21.88;53.20;95701.75;5039754;28;20197;-83
2023/08/09 11:21:54;;;;;;;3.38;1.95;;;;;;;21.69;53.42;95698.22;5050253;28;20241;-84
2023/08/09 11:24:21;;;;;;;5.05;1.90;;;;;;;21.68;53.75;95707.16;5049729;28;20253;-83
2023/08/09 11:26:56;;;;;;;4.60;2.25;;;;;;;21.64;53.84;95705.97;5036082;28;20206;-82
2023/08/09 11:29:23;;;;;;;2.65;1.67;;;;;;;22.15;52.89;95693.66;5048632;28;20222;-82